sensor_id;sensor_type;location;lat;lon;timestamp;P1;durP1;ratioP1;P2;durP2;ratioP2
30307;SDS011;17114;52.314;8.910;2022-12-29T00:01:42;3.28;;;1.75;;
30307;SDS011;17114;52.314;8.910;2022-12-29T00:04:09;2.75;;;1.70;;
30307;SDS011;17114;52.314;8.910;2022-12-29T00:06:41;2.10;;;1.58;;
30307;SDS011;17114;52.314;8.910;2022-12-29T00:09:10;2.72;;;1.30;;
30307;SDS011;17114;52.314;8.910;2022-12-29T00:11:38;1.80;;;1.45;;
30307;SDS011;17114;52.314;8.910;2022-12-29T00:14:06;1.83;;;1.40;;
30307;SDS011;17114;52.314;8.910;2022-12-29T00:16:53;6.60;;;2.22;;
30307;SDS011;17114;52.314;8.910;2022-12-29T00:19:21;3.65;;;1.60;;
30307;SDS011;17114;52.314;8.910;2022-12-29T00:22:08;2.20;;;1.70;;
30307;SDS011;17114;52.314;8.910;2022-12-29T00:24:55;3.10;;;1.50;;
30307;SDS011;17114;52.314;8.910;2022-12-29T00:27:31;1.10;;;1.00;;
30307;SDS011;17114;52.314;8.910;2022-12-29T00:30:18;4.22;;;1.33;;
30307;SDS011;17114;52.314;8.910;2022-12-29T00:36:00;1.52;;;1.30;;
30307;SDS011;17114;52.314;8.910;2022-12-29T00:38:32;2.65;;;1.55;;
30307;SDS011;17114;52.314;8.910;2022-12-29T00:41:21;1.88;;;1.42;;
30307;SDS011;17114;52.314;8.910;2022-12-29T00:46:37;2.35;;;1.42;;
30307;SDS011;17114;52.314;8.910;2022-12-29T00:49:06;4.60;;;1.40;;
30307;SDS011;17114;52.314;8.910;2022-12-29T00:51:53;2.03;;;1.38;;
30307;SDS011;17114;52.314;8.910;2022-12-29T00:54:21;1.60;;;1.35;;
30307;SDS011;17114;52.314;8.910;2022-12-29T00:56:49;1.95;;;1.45;;
30307;SDS011;17114;52.314;8.910;2022-12-29T00:59:17;1.45;;;1.23;;
30307;SDS011;17114;52.314;8.910;2022-12-29T01:01:46;2.35;;;1.40;;
30307;SDS011;17114;52.314;8.910;2022-12-29T01:04:14;2.83;;;1.27;;
30307;SDS011;17114;52.314;8.910;2022-12-29T01:06:43;3.40;;;1.70;;
30307;SDS011;17114;52.314;8.910;2022-12-29T01:09:11;2.85;;;1.45;;
30307;SDS011;17114;52.314;8.910;2022-12-29T01:11:58;1.58;;;1.13;;
30307;SDS011;17114;52.314;8.910;2022-12-29T01:14:26;2.78;;;1.55;;
30307;SDS011;17114;52.314;8.910;2022-12-29T01:16:53;3.03;;;1.30;;
30307;SDS011;17114;52.314;8.910;2022-12-29T01:19:22;2.97;;;1.20;;
30307;SDS011;17114;52.314;8.910;2022-12-29T01:21:54;2.15;;;1.02;;
30307;SDS011;17114;52.314;8.910;2022-12-29T01:24:21;2.72;;;1.17;;
30307;SDS011;17114;52.314;8.910;2022-12-29T01:26:49;2.80;;;1.30;;
30307;SDS011;17114;52.314;8.910;2022-12-29T01:29:16;2.95;;;1.45;;
30307;SDS011;17114;52.314;8.910;2022-12-29T01:31:44;3.85;;;1.20;;
30307;SDS011;17114;52.314;8.910;2022-12-29T01:34:13;1.52;;;1.10;;
30307;SDS011;17114;52.314;8.910;2022-12-29T01:36:41;1.80;;;1.10;;
30307;SDS011;17114;52.314;8.910;2022-12-29T01:39:09;1.77;;;1.08;;
30307;SDS011;17114;52.314;8.910;2022-12-29T01:41:36;1.17;;;1.05;;
30307;SDS011;17114;52.314;8.910;2022-12-29T01:44:39;1.15;;;1.00;;
30307;SDS011;17114;52.314;8.910;2022-12-29T01:47:09;1.92;;;1.23;;
30307;SDS011;17114;52.314;8.910;2022-12-29T01:49:36;2.90;;;1.10;;
30307;SDS011;17114;52.314;8.910;2022-12-29T01:52:05;1.95;;;1.17;;
30307;SDS011;17114;52.314;8.910;2022-12-29T01:54:36;1.65;;;1.17;;
30307;SDS011;17114;52.314;8.910;2022-12-29T01:57:11;1.80;;;1.00;;
30307;SDS011;17114;52.314;8.910;2022-12-29T01:59:49;0.98;;;0.80;;
30307;SDS011;17114;52.314;8.910;2022-12-29T02:02:25;1.25;;;1.15;;
30307;SDS011;17114;52.314;8.910;2022-12-29T02:04:58;1.00;;;0.90;;
30307;SDS011;17114;52.314;8.910;2022-12-29T02:07:30;1.50;;;1.00;;
30307;SDS011;17114;52.314;8.910;2022-12-29T02:09:58;0.88;;;0.80;;
30307;SDS011;17114;52.314;8.910;2022-12-29T02:12:27;1.40;;;0.95;;
30307;SDS011;17114;52.314;8.910;2022-12-29T02:14:55;2.22;;;0.90;;
30307;SDS011;17114;52.314;8.910;2022-12-29T02:17:39;2.38;;;0.98;;
30307;SDS011;17114;52.314;8.910;2022-12-29T02:20:41;0.65;;;0.65;;
30307;SDS011;17114;52.314;8.910;2022-12-29T02:34:15;0.70;;;0.70;;
30307;SDS011;17114;52.314;8.910;2022-12-29T02:37:09;1.70;;;0.90;;
30307;SDS011;17114;52.314;8.910;2022-12-29T02:42:55;0.73;;;0.73;;
30307;SDS011;17114;52.314;8.910;2022-12-29T02:45:36;0.75;;;0.75;;
30307;SDS011;17114;52.314;8.910;2022-12-29T02:51:00;1.33;;;0.70;;
30307;SDS011;17114;52.314;8.910;2022-12-29T02:53:49;0.60;;;0.60;;
30307;SDS011;17114;52.314;8.910;2022-12-29T02:56:38;2.75;;;0.60;;
30307;SDS011;17114;52.314;8.910;2022-12-29T02:59:05;1.35;;;0.60;;
30307;SDS011;17114;52.314;8.910;2022-12-29T03:07:25;0.55;;;0.55;;
30307;SDS011;17114;52.314;8.910;2022-12-29T03:13:02;1.38;;;0.75;;
30307;SDS011;17114;52.314;8.910;2022-12-29T03:18:57;0.90;;;0.80;;
30307;SDS011;17114;52.314;8.910;2022-12-29T03:21:44;0.63;;;0.55;;
30307;SDS011;17114;52.314;8.910;2022-12-29T03:24:36;0.77;;;0.60;;
30307;SDS011;17114;52.314;8.910;2022-12-29T03:27:10;0.50;;;0.50;;
30307;SDS011;17114;52.314;8.910;2022-12-29T03:29:47;0.85;;;0.70;;
30307;SDS011;17114;52.314;8.910;2022-12-29T03:32:22;0.60;;;0.60;;
30307;SDS011;17114;52.314;8.910;2022-12-29T03:35:20;1.05;;;0.50;;
30307;SDS011;17114;52.314;8.910;2022-12-29T03:37:50;1.33;;;0.63;;
30307;SDS011;17114;52.314;8.910;2022-12-29T03:40:23;0.77;;;0.52;;
30307;SDS011;17114;52.314;8.910;2022-12-29T03:42:53;0.47;;;0.45;;
30307;SDS011;17114;52.314;8.910;2022-12-29T03:45:22;1.02;;;0.68;;
30307;SDS011;17114;52.314;8.910;2022-12-29T03:47:49;0.68;;;0.57;;
30307;SDS011;17114;52.314;8.910;2022-12-29T03:50:18;3.13;;;0.75;;
30307;SDS011;17114;52.314;8.910;2022-12-29T03:52:45;2.38;;;0.60;;
30307;SDS011;17114;52.314;8.910;2022-12-29T03:55:13;3.15;;;0.60;;
30307;SDS011;17114;52.314;8.910;2022-12-29T03:57:41;1.52;;;0.70;;
30307;SDS011;17114;52.314;8.910;2022-12-29T04:00:08;1.45;;;0.75;;
30307;SDS011;17114;52.314;8.910;2022-12-29T04:02:37;1.27;;;0.60;;
30307;SDS011;17114;52.314;8.910;2022-12-29T04:05:05;1.45;;;0.57;;
30307;SDS011;17114;52.314;8.910;2022-12-29T04:07:33;1.08;;;0.47;;
30307;SDS011;17114;52.314;8.910;2022-12-29T04:10:00;1.67;;;0.47;;
30307;SDS011;17114;52.314;8.910;2022-12-29T04:12:28;0.75;;;0.60;;
30307;SDS011;17114;52.314;8.910;2022-12-29T04:14:55;0.70;;;0.50;;
30307;SDS011;17114;52.314;8.910;2022-12-29T04:17:23;0.70;;;0.60;;
30307;SDS011;17114;52.314;8.910;2022-12-29T04:19:50;1.88;;;0.70;;
30307;SDS011;17114;52.314;8.910;2022-12-29T04:22:17;0.98;;;0.70;;
30307;SDS011;17114;52.314;8.910;2022-12-29T04:24:44;0.45;;;0.45;;
30307;SDS011;17114;52.314;8.910;2022-12-29T04:27:12;1.60;;;0.80;;
30307;SDS011;17114;52.314;8.910;2022-12-29T04:29:39;0.50;;;0.50;;
30307;SDS011;17114;52.314;8.910;2022-12-29T04:32:07;2.25;;;0.60;;
30307;SDS011;17114;52.314;8.910;2022-12-29T04:34:34;1.77;;;0.60;;
30307;SDS011;17114;52.314;8.910;2022-12-29T04:37:02;1.27;;;0.65;;
30307;SDS011;17114;52.314;8.910;2022-12-29T04:39:30;1.20;;;0.63;;
30307;SDS011;17114;52.314;8.910;2022-12-29T04:42:00;0.93;;;0.77;;
30307;SDS011;17114;52.314;8.910;2022-12-29T04:44:27;0.65;;;0.57;;
30307;SDS011;17114;52.314;8.910;2022-12-29T04:46:55;0.93;;;0.70;;
30307;SDS011;17114;52.314;8.910;2022-12-29T04:49:22;1.17;;;0.60;;
30307;SDS011;17114;52.314;8.910;2022-12-29T04:51:50;2.28;;;1.00;;
30307;SDS011;17114;52.314;8.910;2022-12-29T04:54:18;2.85;;;0.60;;
30307;SDS011;17114;52.314;8.910;2022-12-29T04:56:45;1.33;;;0.77;;
30307;SDS011;17114;52.314;8.910;2022-12-29T04:59:13;1.00;;;0.60;;
30307;SDS011;17114;52.314;8.910;2022-12-29T05:01:40;0.90;;;0.63;;
30307;SDS011;17114;52.314;8.910;2022-12-29T05:04:09;1.77;;;0.93;;
30307;SDS011;17114;52.314;8.910;2022-12-29T05:06:37;5.35;;;0.80;;
30307;SDS011;17114;52.314;8.910;2022-12-29T05:09:07;0.98;;;0.70;;
30307;SDS011;17114;52.314;8.910;2022-12-29T05:11:34;2.05;;;0.80;;
30307;SDS011;17114;52.314;8.910;2022-12-29T05:14:02;0.52;;;0.52;;
30307;SDS011;17114;52.314;8.910;2022-12-29T05:16:29;4.00;;;0.80;;
30307;SDS011;17114;52.314;8.910;2022-12-29T05:18:57;1.25;;;0.50;;
30307;SDS011;17114;52.314;8.910;2022-12-29T05:21:25;1.10;;;0.60;;
30307;SDS011;17114;52.314;8.910;2022-12-29T05:23:53;1.23;;;0.75;;
30307;SDS011;17114;52.314;8.910;2022-12-29T05:26:20;2.20;;;0.70;;
30307;SDS011;17114;52.314;8.910;2022-12-29T05:28:48;0.75;;;0.68;;
30307;SDS011;17114;52.314;8.910;2022-12-29T05:31:16;2.08;;;0.70;;
30307;SDS011;17114;52.314;8.910;2022-12-29T05:33:43;2.35;;;0.50;;
30307;SDS011;17114;52.314;8.910;2022-12-29T05:36:10;2.50;;;0.70;;
30307;SDS011;17114;52.314;8.910;2022-12-29T05:38:39;1.65;;;0.68;;
30307;SDS011;17114;52.314;8.910;2022-12-29T05:41:07;2.55;;;0.80;;
30307;SDS011;17114;52.314;8.910;2022-12-29T05:43:35;2.10;;;0.75;;
30307;SDS011;17114;52.314;8.910;2022-12-29T05:46:02;2.08;;;0.80;;
30307;SDS011;17114;52.314;8.910;2022-12-29T05:48:30;3.67;;;0.90;;
30307;SDS011;17114;52.314;8.910;2022-12-29T05:51:03;2.90;;;0.85;;
30307;SDS011;17114;52.314;8.910;2022-12-29T05:53:31;1.58;;;0.80;;
30307;SDS011;17114;52.314;8.910;2022-12-29T05:56:00;1.20;;;0.90;;
30307;SDS011;17114;52.314;8.910;2022-12-29T05:58:28;3.97;;;0.85;;
30307;SDS011;17114;52.314;8.910;2022-12-29T06:00:55;2.47;;;1.05;;
30307;SDS011;17114;52.314;8.910;2022-12-29T06:03:22;3.55;;;0.98;;
30307;SDS011;17114;52.314;8.910;2022-12-29T06:05:53;0.93;;;0.80;;
30307;SDS011;17114;52.314;8.910;2022-12-29T06:08:21;1.98;;;0.90;;
30307;SDS011;17114;52.314;8.910;2022-12-29T06:10:49;0.95;;;0.90;;
30307;SDS011;17114;52.314;8.910;2022-12-29T06:13:17;1.55;;;1.08;;
30307;SDS011;17114;52.314;8.910;2022-12-29T06:15:45;1.60;;;0.68;;
30307;SDS011;17114;52.314;8.910;2022-12-29T06:18:15;3.33;;;1.40;;
30307;SDS011;17114;52.314;8.910;2022-12-29T06:20:45;1.25;;;0.70;;
30307;SDS011;17114;52.314;8.910;2022-12-29T06:23:13;0.80;;;0.77;;
30307;SDS011;17114;52.314;8.910;2022-12-29T06:25:41;1.70;;;0.77;;
30307;SDS011;17114;52.314;8.910;2022-12-29T06:28:08;2.85;;;1.05;;
30307;SDS011;17114;52.314;8.910;2022-12-29T06:30:37;3.42;;;0.95;;
30307;SDS011;17114;52.314;8.910;2022-12-29T06:33:04;3.83;;;0.82;;
30307;SDS011;17114;52.314;8.910;2022-12-29T06:35:31;2.35;;;0.65;;
30307;SDS011;17114;52.314;8.910;2022-12-29T06:37:58;3.33;;;0.85;;
30307;SDS011;17114;52.314;8.910;2022-12-29T06:40:26;2.35;;;0.80;;
30307;SDS011;17114;52.314;8.910;2022-12-29T06:42:55;3.40;;;0.90;;
30307;SDS011;17114;52.314;8.910;2022-12-29T06:45:23;3.35;;;0.70;;
30307;SDS011;17114;52.314;8.910;2022-12-29T06:47:50;3.33;;;0.50;;
30307;SDS011;17114;52.314;8.910;2022-12-29T06:50:17;3.20;;;1.20;;
30307;SDS011;17114;52.314;8.910;2022-12-29T06:52:44;1.90;;;0.80;;
30307;SDS011;17114;52.314;8.910;2022-12-29T06:55:12;2.25;;;0.70;;
30307;SDS011;17114;52.314;8.910;2022-12-29T06:57:39;2.13;;;0.70;;
30307;SDS011;17114;52.314;8.910;2022-12-29T07:00:06;4.50;;;0.80;;
30307;SDS011;17114;52.314;8.910;2022-12-29T07:02:34;1.40;;;0.77;;
30307;SDS011;17114;52.314;8.910;2022-12-29T07:05:02;2.55;;;0.73;;
30307;SDS011;17114;52.314;8.910;2022-12-29T07:07:30;2.60;;;0.88;;
30307;SDS011;17114;52.314;8.910;2022-12-29T07:09:57;1.27;;;0.60;;
30307;SDS011;17114;52.314;8.910;2022-12-29T07:12:25;2.78;;;0.90;;
30307;SDS011;17114;52.314;8.910;2022-12-29T07:14:53;2.92;;;1.25;;
30307;SDS011;17114;52.314;8.910;2022-12-29T07:17:21;1.38;;;0.85;;
30307;SDS011;17114;52.314;8.910;2022-12-29T07:19:48;1.92;;;0.95;;
30307;SDS011;17114;52.314;8.910;2022-12-29T07:22:15;3.63;;;1.30;;
30307;SDS011;17114;52.314;8.910;2022-12-29T07:24:42;1.88;;;1.10;;
30307;SDS011;17114;52.314;8.910;2022-12-29T07:27:09;2.22;;;1.10;;
30307;SDS011;17114;52.314;8.910;2022-12-29T07:29:37;1.83;;;1.17;;
30307;SDS011;17114;52.314;8.910;2022-12-29T07:32:05;1.83;;;1.08;;
30307;SDS011;17114;52.314;8.910;2022-12-29T07:34:33;2.45;;;1.13;;
30307;SDS011;17114;52.314;8.910;2022-12-29T07:37:00;3.75;;;1.50;;
30307;SDS011;17114;52.314;8.910;2022-12-29T07:39:27;3.00;;;1.60;;
30307;SDS011;17114;52.314;8.910;2022-12-29T07:41:55;5.82;;;2.70;;
30307;SDS011;17114;52.314;8.910;2022-12-29T07:44:30;4.47;;;1.60;;
30307;SDS011;17114;52.314;8.910;2022-12-29T07:46:58;3.63;;;1.38;;
30307;SDS011;17114;52.314;8.910;2022-12-29T07:49:27;6.70;;;1.50;;
30307;SDS011;17114;52.314;8.910;2022-12-29T07:51:59;4.75;;;1.38;;
30307;SDS011;17114;52.314;8.910;2022-12-29T07:54:31;2.97;;;1.40;;
30307;SDS011;17114;52.314;8.910;2022-12-29T07:57:36;5.57;;;1.70;;
30307;SDS011;17114;52.314;8.910;2022-12-29T08:00:16;3.78;;;1.50;;
30307;SDS011;17114;52.314;8.910;2022-12-29T08:02:44;4.20;;;1.65;;
30307;SDS011;17114;52.314;8.910;2022-12-29T08:05:11;4.28;;;1.50;;
30307;SDS011;17114;52.314;8.910;2022-12-29T08:07:39;3.17;;;1.15;;
30307;SDS011;17114;52.314;8.910;2022-12-29T08:10:10;6.95;;;1.35;;
30307;SDS011;17114;52.314;8.910;2022-12-29T08:12:40;5.43;;;1.60;;
30307;SDS011;17114;52.314;8.910;2022-12-29T08:15:08;3.50;;;1.10;;
30307;SDS011;17114;52.314;8.910;2022-12-29T08:17:37;8.95;;;1.55;;
30307;SDS011;17114;52.314;8.910;2022-12-29T08:20:06;3.03;;;1.40;;
30307;SDS011;17114;52.314;8.910;2022-12-29T08:22:35;5.32;;;1.08;;
30307;SDS011;17114;52.314;8.910;2022-12-29T08:25:02;7.28;;;1.60;;
30307;SDS011;17114;52.314;8.910;2022-12-29T08:27:34;4.18;;;1.63;;
30307;SDS011;17114;52.314;8.910;2022-12-29T08:30:01;7.25;;;1.35;;
30307;SDS011;17114;52.314;8.910;2022-12-29T08:32:29;3.97;;;1.23;;
30307;SDS011;17114;52.314;8.910;2022-12-29T08:34:56;8.32;;;1.50;;
30307;SDS011;17114;52.314;8.910;2022-12-29T08:37:24;6.85;;;1.35;;
30307;SDS011;17114;52.314;8.910;2022-12-29T08:39:56;4.78;;;1.52;;
30307;SDS011;17114;52.314;8.910;2022-12-29T08:42:25;12.23;;;1.95;;
30307;SDS011;17114;52.314;8.910;2022-12-29T08:44:58;6.47;;;1.77;;
30307;SDS011;17114;52.314;8.910;2022-12-29T08:47:26;4.25;;;1.08;;
30307;SDS011;17114;52.314;8.910;2022-12-29T08:49:54;6.15;;;1.63;;
30307;SDS011;17114;52.314;8.910;2022-12-29T08:52:22;6.60;;;1.60;;
30307;SDS011;17114;52.314;8.910;2022-12-29T08:54:52;3.75;;;1.40;;
30307;SDS011;17114;52.314;8.910;2022-12-29T08:57:19;7.22;;;1.33;;
30307;SDS011;17114;52.314;8.910;2022-12-29T08:59:46;7.85;;;1.40;;
30307;SDS011;17114;52.314;8.910;2022-12-29T09:02:13;6.72;;;1.50;;
30307;SDS011;17114;52.314;8.910;2022-12-29T09:04:49;5.78;;;1.63;;
30307;SDS011;17114;52.314;8.910;2022-12-29T09:07:16;5.63;;;1.20;;
30307;SDS011;17114;52.314;8.910;2022-12-29T09:09:43;8.27;;;1.60;;
30307;SDS011;17114;52.314;8.910;2022-12-29T09:12:10;7.70;;;1.50;;
30307;SDS011;17114;52.314;8.910;2022-12-29T09:14:38;6.15;;;1.30;;
30307;SDS011;17114;52.314;8.910;2022-12-29T09:17:06;14.02;;;1.90;;
30307;SDS011;17114;52.314;8.910;2022-12-29T09:19:52;4.82;;;1.10;;
30307;SDS011;17114;52.314;8.910;2022-12-29T09:22:22;11.80;;;1.80;;
30307;SDS011;17114;52.314;8.910;2022-12-29T09:24:49;5.88;;;1.13;;
30307;SDS011;17114;52.314;8.910;2022-12-29T09:27:16;6.90;;;1.35;;
30307;SDS011;17114;52.314;8.910;2022-12-29T09:29:45;6.90;;;1.50;;
30307;SDS011;17114;52.314;8.910;2022-12-29T09:32:12;5.15;;;1.35;;
30307;SDS011;17114;52.314;8.910;2022-12-29T09:34:44;4.22;;;1.20;;
30307;SDS011;17114;52.314;8.910;2022-12-29T09:37:12;5.18;;;1.20;;
30307;SDS011;17114;52.314;8.910;2022-12-29T09:39:39;7.15;;;1.70;;
30307;SDS011;17114;52.314;8.910;2022-12-29T09:42:22;8.88;;;1.58;;
30307;SDS011;17114;52.314;8.910;2022-12-29T09:48:07;4.90;;;1.42;;
30307;SDS011;17114;52.314;8.910;2022-12-29T09:50:50;8.07;;;2.03;;
30307;SDS011;17114;52.314;8.910;2022-12-29T09:53:36;3.53;;;1.10;;
30307;SDS011;17114;52.314;8.910;2022-12-29T09:56:20;7.68;;;2.05;;
30307;SDS011;17114;52.314;8.910;2022-12-29T09:59:09;8.43;;;1.58;;
30307;SDS011;17114;52.314;8.910;2022-12-29T10:01:46;4.93;;;1.40;;
30307;SDS011;17114;52.314;8.910;2022-12-29T10:04:46;7.65;;;1.50;;
30307;SDS011;17114;52.314;8.910;2022-12-29T10:07:20;6.38;;;1.50;;
30307;SDS011;17114;52.314;8.910;2022-12-29T10:21:53;6.90;;;1.48;;
30307;SDS011;17114;52.314;8.910;2022-12-29T10:24:34;6.28;;;1.55;;
30307;SDS011;17114;52.314;8.910;2022-12-29T10:27:05;7.38;;;1.30;;
30307;SDS011;17114;52.314;8.910;2022-12-29T10:29:40;5.47;;;1.20;;
30307;SDS011;17114;52.314;8.910;2022-12-29T10:34:47;8.88;;;1.48;;
30307;SDS011;17114;52.314;8.910;2022-12-29T10:37:49;6.68;;;1.80;;
30307;SDS011;17114;52.314;8.910;2022-12-29T10:46:10;4.72;;;1.35;;
30307;SDS011;17114;52.314;8.910;2022-12-29T10:48:53;4.95;;;1.35;;
30307;SDS011;17114;52.314;8.910;2022-12-29T10:51:30;4.20;;;1.20;;
30307;SDS011;17114;52.314;8.910;2022-12-29T10:57:12;7.25;;;1.88;;
30307;SDS011;17114;52.314;8.910;2022-12-29T10:59:55;7.07;;;1.58;;
30307;SDS011;17114;52.314;8.910;2022-12-29T11:02:43;8.35;;;1.50;;
30307;SDS011;17114;52.314;8.910;2022-12-29T11:08:17;8.18;;;2.35;;
30307;SDS011;17114;52.314;8.910;2022-12-29T11:11:32;8.88;;;2.08;;
30307;SDS011;17114;52.314;8.910;2022-12-29T11:14:28;5.93;;;1.70;;
30307;SDS011;17114;52.314;8.910;2022-12-29T11:17:15;5.22;;;1.92;;
30307;SDS011;17114;52.314;8.910;2022-12-29T11:19:46;8.18;;;1.73;;
30307;SDS011;17114;52.314;8.910;2022-12-29T11:22:44;7.55;;;1.85;;
30307;SDS011;17114;52.314;8.910;2022-12-29T11:25:22;6.80;;;1.65;;
30307;SDS011;17114;52.314;8.910;2022-12-29T11:28:14;10.00;;;1.85;;
30307;SDS011;17114;52.314;8.910;2022-12-29T11:30:49;4.35;;;1.73;;
30307;SDS011;17114;52.314;8.910;2022-12-29T11:33:33;4.85;;;1.95;;
30307;SDS011;17114;52.314;8.910;2022-12-29T11:36:04;7.75;;;1.75;;
30307;SDS011;17114;52.314;8.910;2022-12-29T11:38:36;4.57;;;1.15;;
30307;SDS011;17114;52.314;8.910;2022-12-29T11:41:09;7.68;;;1.70;;
30307;SDS011;17114;52.314;8.910;2022-12-29T11:43:41;8.88;;;2.33;;
30307;SDS011;17114;52.314;8.910;2022-12-29T11:46:18;5.15;;;1.63;;
30307;SDS011;17114;52.314;8.910;2022-12-29T11:48:52;9.32;;;2.55;;
30307;SDS011;17114;52.314;8.910;2022-12-29T11:51:26;7.97;;;2.17;;
30307;SDS011;17114;52.314;8.910;2022-12-29T11:53:57;8.23;;;1.75;;
30307;SDS011;17114;52.314;8.910;2022-12-29T11:56:36;9.00;;;2.33;;
30307;SDS011;17114;52.314;8.910;2022-12-29T12:01:53;5.45;;;1.85;;
30307;SDS011;17114;52.314;8.910;2022-12-29T12:04:24;8.75;;;1.85;;
30307;SDS011;17114;52.314;8.910;2022-12-29T12:06:59;7.30;;;2.00;;
30307;SDS011;17114;52.314;8.910;2022-12-29T12:09:32;9.48;;;1.90;;
30307;SDS011;17114;52.314;8.910;2022-12-29T12:12:04;8.75;;;1.90;;
30307;SDS011;17114;52.314;8.910;2022-12-29T12:14:37;9.48;;;1.60;;
30307;SDS011;17114;52.314;8.910;2022-12-29T12:17:23;7.53;;;2.00;;
30307;SDS011;17114;52.314;8.910;2022-12-29T12:22:46;8.75;;;1.70;;
30307;SDS011;17114;52.314;8.910;2022-12-29T12:25:40;7.78;;;1.60;;
30307;SDS011;17114;52.314;8.910;2022-12-29T12:28:50;6.50;;;1.70;;
30307;SDS011;17114;52.314;8.910;2022-12-29T12:34:30;8.35;;;1.63;;
30307;SDS011;17114;52.314;8.910;2022-12-29T12:48:26;5.65;;;1.50;;
30307;SDS011;17114;52.314;8.910;2022-12-29T13:17:19;6.90;;;1.73;;
30307;SDS011;17114;52.314;8.910;2022-12-29T13:19:53;8.93;;;1.80;;
30307;SDS011;17114;52.314;8.910;2022-12-29T13:25:24;5.83;;;1.93;;
30307;SDS011;17114;52.314;8.910;2022-12-29T13:28:00;9.23;;;2.15;;
30307;SDS011;17114;52.314;8.910;2022-12-29T13:33:41;7.70;;;2.23;;
30307;SDS011;17114;52.314;8.910;2022-12-29T13:36:28;8.90;;;1.90;;
30307;SDS011;17114;52.314;8.910;2022-12-29T13:39:05;7.07;;;1.88;;
30307;SDS011;17114;52.314;8.910;2022-12-29T13:41:50;10.00;;;2.70;;
30307;SDS011;17114;52.314;8.910;2022-12-29T13:44:27;7.07;;;1.95;;
30307;SDS011;17114;52.314;8.910;2022-12-29T13:47:26;3.47;;;1.50;;
30307;SDS011;17114;52.314;8.910;2022-12-29T13:50:05;7.85;;;1.50;;
30307;SDS011;17114;52.314;8.910;2022-12-29T13:52:48;9.90;;;1.77;;
30307;SDS011;17114;52.314;8.910;2022-12-29T13:55:44;6.65;;;1.80;;
30307;SDS011;17114;52.314;8.910;2022-12-29T14:03:42;7.53;;;1.67;;
30307;SDS011;17114;52.314;8.910;2022-12-29T14:08:53;5.18;;;1.45;;
30307;SDS011;17114;52.314;8.910;2022-12-29T14:11:36;9.00;;;1.75;;
30307;SDS011;17114;52.314;8.910;2022-12-29T14:14:28;9.40;;;1.85;;
30307;SDS011;17114;52.314;8.910;2022-12-29T14:17:12;8.80;;;2.40;;
30307;SDS011;17114;52.314;8.910;2022-12-29T14:19:50;9.98;;;2.70;;
30307;SDS011;17114;52.314;8.910;2022-12-29T14:22:23;11.88;;;2.53;;
30307;SDS011;17114;52.314;8.910;2022-12-29T14:24:58;7.95;;;2.10;;
30307;SDS011;17114;52.314;8.910;2022-12-29T14:29:55;8.05;;;2.00;;
30307;SDS011;17114;52.314;8.910;2022-12-29T14:34:57;7.45;;;2.08;;
30307;SDS011;17114;52.314;8.910;2022-12-29T14:40:06;7.88;;;1.83;;
30307;SDS011;17114;52.314;8.910;2022-12-29T14:42:41;12.85;;;1.90;;
30307;SDS011;17114;52.314;8.910;2022-12-29T14:47:43;8.45;;;1.92;;
30307;SDS011;17114;52.314;8.910;2022-12-29T14:50:22;5.07;;;1.50;;
30307;SDS011;17114;52.314;8.910;2022-12-29T14:52:53;6.85;;;1.80;;
30307;SDS011;17114;52.314;8.910;2022-12-29T15:00:42;6.97;;;2.17;;
30307;SDS011;17114;52.314;8.910;2022-12-29T15:03:13;13.55;;;2.40;;
30307;SDS011;17114;52.314;8.910;2022-12-29T15:05:48;10.93;;;1.88;;
30307;SDS011;17114;52.314;8.910;2022-12-29T15:08:19;10.05;;;2.35;;
30307;SDS011;17114;52.314;8.910;2022-12-29T15:11:01;7.03;;;1.63;;
30307;SDS011;17114;52.314;8.910;2022-12-29T15:13:33;6.50;;;1.88;;
30307;SDS011;17114;52.314;8.910;2022-12-29T15:16:13;9.45;;;1.90;;
30307;SDS011;17114;52.314;8.910;2022-12-29T15:18:52;10.25;;;2.10;;
30307;SDS011;17114;52.314;8.910;2022-12-29T15:21:24;9.20;;;1.77;;
30307;SDS011;17114;52.314;8.910;2022-12-29T15:23:53;12.30;;;2.28;;
30307;SDS011;17114;52.314;8.910;2022-12-29T15:26:21;9.93;;;2.10;;
30307;SDS011;17114;52.314;8.910;2022-12-29T15:28:50;10.10;;;1.80;;
30307;SDS011;17114;52.314;8.910;2022-12-29T15:31:19;9.00;;;1.90;;
30307;SDS011;17114;52.314;8.910;2022-12-29T15:34:02;5.95;;;1.90;;
30307;SDS011;17114;52.314;8.910;2022-12-29T15:36:38;8.25;;;1.67;;
30307;SDS011;17114;52.314;8.910;2022-12-29T15:39:19;7.53;;;1.83;;
30307;SDS011;17114;52.314;8.910;2022-12-29T15:41:48;11.07;;;2.25;;
30307;SDS011;17114;52.314;8.910;2022-12-29T15:44:35;11.43;;;2.72;;
30307;SDS011;17114;52.314;8.910;2022-12-29T15:47:28;9.15;;;2.20;;
30307;SDS011;17114;52.314;8.910;2022-12-29T15:49:59;10.77;;;2.10;;
30307;SDS011;17114;52.314;8.910;2022-12-29T15:52:31;11.68;;;2.40;;
30307;SDS011;17114;52.314;8.910;2022-12-29T15:54:59;6.10;;;2.08;;
30307;SDS011;17114;52.314;8.910;2022-12-29T15:57:29;13.70;;;2.33;;
30307;SDS011;17114;52.314;8.910;2022-12-29T16:00:03;13.57;;;3.45;;
30307;SDS011;17114;52.314;8.910;2022-12-29T16:02:47;8.30;;;2.35;;
30307;SDS011;17114;52.314;8.910;2022-12-29T16:05:16;12.95;;;2.65;;
30307;SDS011;17114;52.314;8.910;2022-12-29T16:07:52;12.73;;;2.20;;
30307;SDS011;17114;52.314;8.910;2022-12-29T16:10:32;10.73;;;2.50;;
30307;SDS011;17114;52.314;8.910;2022-12-29T16:13:04;12.68;;;3.03;;
30307;SDS011;17114;52.314;8.910;2022-12-29T16:15:52;12.50;;;2.80;;
30307;SDS011;17114;52.314;8.910;2022-12-29T16:18:32;17.35;;;2.50;;
30307;SDS011;17114;52.314;8.910;2022-12-29T16:23:30;13.65;;;2.47;;
30307;SDS011;17114;52.314;8.910;2022-12-29T16:25:59;9.43;;;2.55;;
30307;SDS011;17114;52.314;8.910;2022-12-29T16:28:30;10.43;;;2.90;;
30307;SDS011;17114;52.314;8.910;2022-12-29T16:31:17;11.80;;;2.30;;
30307;SDS011;17114;52.314;8.910;2022-12-29T16:33:49;9.50;;;2.55;;
30307;SDS011;17114;52.314;8.910;2022-12-29T16:36:21;9.38;;;2.08;;
30307;SDS011;17114;52.314;8.910;2022-12-29T16:38:48;9.75;;;2.42;;
30307;SDS011;17114;52.314;8.910;2022-12-29T16:41:31;9.48;;;2.80;;
30307;SDS011;17114;52.314;8.910;2022-12-29T16:44:11;9.40;;;2.47;;
30307;SDS011;17114;52.314;8.910;2022-12-29T16:46:59;10.43;;;2.78;;
30307;SDS011;17114;52.314;8.910;2022-12-29T16:49:31;9.48;;;2.25;;
30307;SDS011;17114;52.314;8.910;2022-12-29T16:51:59;16.48;;;2.85;;
30307;SDS011;17114;52.314;8.910;2022-12-29T16:54:30;8.07;;;2.20;;
30307;SDS011;17114;52.314;8.910;2022-12-29T16:57:00;6.10;;;2.25;;
30307;SDS011;17114;52.314;8.910;2022-12-29T16:59:34;13.50;;;2.72;;
30307;SDS011;17114;52.314;8.910;2022-12-29T17:02:11;12.07;;;2.90;;
30307;SDS011;17114;52.314;8.910;2022-12-29T17:04:45;11.30;;;2.75;;
30307;SDS011;17114;52.314;8.910;2022-12-29T17:07:20;11.48;;;2.85;;
30307;SDS011;17114;52.314;8.910;2022-12-29T17:09:49;6.25;;;2.47;;
30307;SDS011;17114;52.314;8.910;2022-12-29T17:12:22;8.70;;;2.70;;
30307;SDS011;17114;52.314;8.910;2022-12-29T17:14:53;5.43;;;2.55;;
30307;SDS011;17114;52.314;8.910;2022-12-29T17:17:32;9.32;;;2.75;;
30307;SDS011;17114;52.314;8.910;2022-12-29T17:22:44;9.23;;;3.67;;
30307;SDS011;17114;52.314;8.910;2022-12-29T17:25:13;10.35;;;3.17;;
30307;SDS011;17114;52.314;8.910;2022-12-29T17:27:48;10.10;;;3.15;;
30307;SDS011;17114;52.314;8.910;2022-12-29T17:30:25;17.73;;;4.43;;
30307;SDS011;17114;52.314;8.910;2022-12-29T17:33:04;11.85;;;4.30;;
30307;SDS011;17114;52.314;8.910;2022-12-29T17:35:42;10.63;;;3.03;;
30307;SDS011;17114;52.314;8.910;2022-12-29T17:40:54;8.25;;;2.67;;
30307;SDS011;17114;52.314;8.910;2022-12-29T17:43:22;9.55;;;2.42;;
30307;SDS011;17114;52.314;8.910;2022-12-29T17:45:52;5.30;;;2.03;;
30307;SDS011;17114;52.314;8.910;2022-12-29T17:48:20;6.90;;;2.40;;
30307;SDS011;17114;52.314;8.910;2022-12-29T17:50:49;7.75;;;2.40;;